sensor_id;sensor_type;location;lat;lon;timestamp;temperature;humidity
9542;DHT22;4809;48.224;8.572;2022-11-09T00:02:23;10.20;75.80
9542;DHT22;4809;48.224;8.572;2022-11-09T00:04:48;10.20;76.60
9542;DHT22;4809;48.224;8.572;2022-11-09T00:07:14;10.20;75.80
9542;DHT22;4809;48.224;8.572;2022-11-09T00:09:40;10.20;76.00
9542;DHT22;4809;48.224;8.572;2022-11-09T00:12:06;10.20;75.90
9542;DHT22;4809;48.224;8.572;2022-11-09T00:14:33;10.20;75.40
9542;DHT22;4809;48.224;8.572;2022-11-09T00:16:59;10.30;75.30
9542;DHT22;4809;48.224;8.572;2022-11-09T00:19:24;10.40;75.10
9542;DHT22;4809;48.224;8.572;2022-11-09T00:21:50;10.40;75.10
9542;DHT22;4809;48.224;8.572;2022-11-09T00:24:15;10.40;75.00
9542;DHT22;4809;48.224;8.572;2022-11-09T00:26:41;10.40;74.60
9542;DHT22;4809;48.224;8.572;2022-11-09T00:29:07;10.50;74.70
9542;DHT22;4809;48.224;8.572;2022-11-09T00:31:33;10.50;74.70
9542;DHT22;4809;48.224;8.572;2022-11-09T00:33:58;10.50;74.80
9542;DHT22;4809;48.224;8.572;2022-11-09T00:36:25;10.60;74.80
9542;DHT22;4809;48.224;8.572;2022-11-09T00:38:54;10.50;75.00
9542;DHT22;4809;48.224;8.572;2022-11-09T00:41:20;10.50;74.80
9542;DHT22;4809;48.224;8.572;2022-11-09T00:43:46;10.60;74.80
9542;DHT22;4809;48.224;8.572;2022-11-09T00:46:13;10.50;74.80
9542;DHT22;4809;48.224;8.572;2022-11-09T00:48:38;10.60;74.90
9542;DHT22;4809;48.224;8.572;2022-11-09T00:51:04;10.50;75.00
9542;DHT22;4809;48.224;8.572;2022-11-09T00:53:30;10.50;75.20
9542;DHT22;4809;48.224;8.572;2022-11-09T00:55:58;10.50;75.50
9542;DHT22;4809;48.224;8.572;2022-11-09T00:58:25;10.50;75.60
9542;DHT22;4809;48.224;8.572;2022-11-09T01:00:52;10.40;75.80
9542;DHT22;4809;48.224;8.572;2022-11-09T01:03:18;10.40;75.90
9542;DHT22;4809;48.224;8.572;2022-11-09T01:05:44;10.40;75.90
9542;DHT22;4809;48.224;8.572;2022-11-09T01:08:10;10.40;76.20
9542;DHT22;4809;48.224;8.572;2022-11-09T01:10:43;10.40;76.50
9542;DHT22;4809;48.224;8.572;2022-11-09T01:13:10;10.30;76.80
9542;DHT22;4809;48.224;8.572;2022-11-09T01:15:44;10.30;77.20
9542;DHT22;4809;48.224;8.572;2022-11-09T01:18:10;10.30;77.20
9542;DHT22;4809;48.224;8.572;2022-11-09T01:20:44;10.20;77.70
9542;DHT22;4809;48.224;8.572;2022-11-09T01:23:11;10.20;77.60
9542;DHT22;4809;48.224;8.572;2022-11-09T01:25:37;10.30;77.50
9542;DHT22;4809;48.224;8.572;2022-11-09T01:28:04;10.40;77.10
9542;DHT22;4809;48.224;8.572;2022-11-09T01:30:33;10.60;77.10
9542;DHT22;4809;48.224;8.572;2022-11-09T01:33:02;10.60;77.50
9542;DHT22;4809;48.224;8.572;2022-11-09T01:35:27;10.60;78.10
9542;DHT22;4809;48.224;8.572;2022-11-09T01:37:53;10.50;78.50
9542;DHT22;4809;48.224;8.572;2022-11-09T01:40:19;10.50;78.70
9542;DHT22;4809;48.224;8.572;2022-11-09T01:42:44;10.50;78.70
9542;DHT22;4809;48.224;8.572;2022-11-09T01:47:43;10.40;79.40
9542;DHT22;4809;48.224;8.572;2022-11-09T01:50:11;10.40;79.60
9542;DHT22;4809;48.224;8.572;2022-11-09T01:52:41;10.40;79.50
9542;DHT22;4809;48.224;8.572;2022-11-09T01:55:16;10.40;79.20
9542;DHT22;4809;48.224;8.572;2022-11-09T01:58:05;10.30;79.50
9542;DHT22;4809;48.224;8.572;2022-11-09T02:00:33;10.40;79.50
9542;DHT22;4809;48.224;8.572;2022-11-09T02:03:06;10.30;79.30
9542;DHT22;4809;48.224;8.572;2022-11-09T02:05:35;10.40;79.30
9542;DHT22;4809;48.224;8.572;2022-11-09T02:08:04;10.40;79.20
9542;DHT22;4809;48.224;8.572;2022-11-09T02:13:01;10.40;79.10
9542;DHT22;4809;48.224;8.572;2022-11-09T02:15:28;10.40;79.20
9542;DHT22;4809;48.224;8.572;2022-11-09T02:17:55;10.40;79.60
9542;DHT22;4809;48.224;8.572;2022-11-09T02:20:22;10.30;79.40
9542;DHT22;4809;48.224;8.572;2022-11-09T02:22:48;10.30;79.20
9542;DHT22;4809;48.224;8.572;2022-11-09T02:25:15;10.40;79.10
9542;DHT22;4809;48.224;8.572;2022-11-09T02:27:41;10.40;78.50
9542;DHT22;4809;48.224;8.572;2022-11-09T02:30:08;10.40;77.90
9542;DHT22;4809;48.224;8.572;2022-11-09T02:32:34;10.40;77.90
9542;DHT22;4809;48.224;8.572;2022-11-09T02:35:00;10.40;78.00
9542;DHT22;4809;48.224;8.572;2022-11-09T02:40:00;10.50;77.80
9542;DHT22;4809;48.224;8.572;2022-11-09T02:42:27;10.50;78.40
9542;DHT22;4809;48.224;8.572;2022-11-09T02:44:56;10.50;78.70
9542;DHT22;4809;48.224;8.572;2022-11-09T02:47:23;10.50;79.20
9542;DHT22;4809;48.224;8.572;2022-11-09T02:49:48;10.40;80.00
9542;DHT22;4809;48.224;8.572;2022-11-09T02:52:15;10.40;80.40
9542;DHT22;4809;48.224;8.572;2022-11-09T02:54:41;10.20;81.00
9542;DHT22;4809;48.224;8.572;2022-11-09T02:57:07;10.20;81.40
9542;DHT22;4809;48.224;8.572;2022-11-09T02:59:33;10.20;81.50
9542;DHT22;4809;48.224;8.572;2022-11-09T03:01:58;10.20;81.40
9542;DHT22;4809;48.224;8.572;2022-11-09T03:04:24;10.20;81.70
9542;DHT22;4809;48.224;8.572;2022-11-09T03:06:50;10.20;82.30
9542;DHT22;4809;48.224;8.572;2022-11-09T03:09:15;10.20;83.10
9542;DHT22;4809;48.224;8.572;2022-11-09T03:11:41;10.20;83.70
9542;DHT22;4809;48.224;8.572;2022-11-09T03:14:08;10.20;84.40
9542;DHT22;4809;48.224;8.572;2022-11-09T03:16:37;10.10;85.10
9542;DHT22;4809;48.224;8.572;2022-11-09T03:19:03;10.10;85.30
9542;DHT22;4809;48.224;8.572;2022-11-09T03:21:29;10.10;85.80
9542;DHT22;4809;48.224;8.572;2022-11-09T03:23:55;10.10;86.40
9542;DHT22;4809;48.224;8.572;2022-11-09T03:26:21;10.00;86.70
9542;DHT22;4809;48.224;8.572;2022-11-09T03:28:46;10.00;87.70
9542;DHT22;4809;48.224;8.572;2022-11-09T03:31:13;10.00;87.80
9542;DHT22;4809;48.224;8.572;2022-11-09T03:33:39;10.10;88.10
9542;DHT22;4809;48.224;8.572;2022-11-09T03:36:05;10.00;88.10
9542;DHT22;4809;48.224;8.572;2022-11-09T03:38:31;10.00;88.40
9542;DHT22;4809;48.224;8.572;2022-11-09T03:41:00;10.00;88.40
9542;DHT22;4809;48.224;8.572;2022-11-09T03:43:27;10.00;88.40
9542;DHT22;4809;48.224;8.572;2022-11-09T03:45:53;9.90;89.80
9542;DHT22;4809;48.224;8.572;2022-11-09T03:48:18;9.90;90.20
9542;DHT22;4809;48.224;8.572;2022-11-09T03:50:44;9.80;90.20
9542;DHT22;4809;48.224;8.572;2022-11-09T03:53:10;9.80;90.30
9542;DHT22;4809;48.224;8.572;2022-11-09T03:55:37;9.80;90.30
9542;DHT22;4809;48.224;8.572;2022-11-09T03:58:03;9.80;90.60
9542;DHT22;4809;48.224;8.572;2022-11-09T04:00:29;9.80;90.80
9542;DHT22;4809;48.224;8.572;2022-11-09T04:02:55;9.80;90.90
9542;DHT22;4809;48.224;8.572;2022-11-09T04:05:21;9.80;91.00
9542;DHT22;4809;48.224;8.572;2022-11-09T04:07:52;9.80;91.00
9542;DHT22;4809;48.224;8.572;2022-11-09T04:10:18;9.70;91.10
9542;DHT22;4809;48.224;8.572;2022-11-09T04:12:45;9.80;91.00
9542;DHT22;4809;48.224;8.572;2022-11-09T04:15:11;9.70;91.00
9542;DHT22;4809;48.224;8.572;2022-11-09T04:17:38;9.80;91.20
9542;DHT22;4809;48.224;8.572;2022-11-09T04:20:05;9.70;91.00
9542;DHT22;4809;48.224;8.572;2022-11-09T04:22:31;9.70;91.10
9542;DHT22;4809;48.224;8.572;2022-11-09T04:24:57;9.70;91.00
9542;DHT22;4809;48.224;8.572;2022-11-09T04:27:23;9.70;91.10
9542;DHT22;4809;48.224;8.572;2022-11-09T04:29:48;9.70;91.10
9542;DHT22;4809;48.224;8.572;2022-11-09T04:32:14;9.70;91.20
9542;DHT22;4809;48.224;8.572;2022-11-09T04:34:39;9.70;91.30
9542;DHT22;4809;48.224;8.572;2022-11-09T04:37:08;9.80;91.40
9542;DHT22;4809;48.224;8.572;2022-11-09T04:39:34;9.70;91.30
9542;DHT22;4809;48.224;8.572;2022-11-09T04:42:00;9.70;91.60
9542;DHT22;4809;48.224;8.572;2022-11-09T04:44:26;9.70;91.90
9542;DHT22;4809;48.224;8.572;2022-11-09T04:46:51;9.60;92.10
9542;DHT22;4809;48.224;8.572;2022-11-09T04:49:17;9.70;92.30
9542;DHT22;4809;48.224;8.572;2022-11-09T04:51:43;9.70;92.20
9542;DHT22;4809;48.224;8.572;2022-11-09T04:54:09;9.70;92.10
9542;DHT22;4809;48.224;8.572;2022-11-09T04:56:35;9.80;91.80
9542;DHT22;4809;48.224;8.572;2022-11-09T04:59:01;9.70;91.50
9542;DHT22;4809;48.224;8.572;2022-11-09T05:01:26;9.70;91.40
9542;DHT22;4809;48.224;8.572;2022-11-09T05:03:52;9.70;91.50
9542;DHT22;4809;48.224;8.572;2022-11-09T05:06:18;9.60;91.50
9542;DHT22;4809;48.224;8.572;2022-11-09T05:09:06;9.60;91.40
9542;DHT22;4809;48.224;8.572;2022-11-09T05:11:33;9.60;91.50
9542;DHT22;4809;48.224;8.572;2022-11-09T05:13:59;9.50;91.50
9542;DHT22;4809;48.224;8.572;2022-11-09T05:16:26;9.50;91.60
9542;DHT22;4809;48.224;8.572;2022-11-09T05:18:53;9.40;91.70
9542;DHT22;4809;48.224;8.572;2022-11-09T05:21:19;9.40;91.90
9542;DHT22;4809;48.224;8.572;2022-11-09T05:23:45;9.40;92.00
9542;DHT22;4809;48.224;8.572;2022-11-09T05:26:33;9.40;92.00
9542;DHT22;4809;48.224;8.572;2022-11-09T05:29:01;9.40;92.20
9542;DHT22;4809;48.224;8.572;2022-11-09T05:31:27;9.40;92.40
9542;DHT22;4809;48.224;8.572;2022-11-09T05:33:54;9.40;92.50
9542;DHT22;4809;48.224;8.572;2022-11-09T05:36:20;9.40;92.70
9542;DHT22;4809;48.224;8.572;2022-11-09T05:38:46;9.40;92.70
9542;DHT22;4809;48.224;8.572;2022-11-09T05:41:12;9.40;92.80
9542;DHT22;4809;48.224;8.572;2022-11-09T05:43:37;9.40;93.20
9542;DHT22;4809;48.224;8.572;2022-11-09T05:46:03;9.50;93.20
9542;DHT22;4809;48.224;8.572;2022-11-09T05:48:29;9.50;93.20
9542;DHT22;4809;48.224;8.572;2022-11-09T05:50:54;9.50;93.10
9542;DHT22;4809;48.224;8.572;2022-11-09T05:53:20;9.50;93.20
9542;DHT22;4809;48.224;8.572;2022-11-09T05:55:46;9.40;93.30
9542;DHT22;4809;48.224;8.572;2022-11-09T05:58:12;9.30;93.40
9542;DHT22;4809;48.224;8.572;2022-11-09T06:00:37;9.40;93.50
9542;DHT22;4809;48.224;8.572;2022-11-09T06:03:05;9.40;93.50
9542;DHT22;4809;48.224;8.572;2022-11-09T06:05:32;9.40;93.30
9542;DHT22;4809;48.224;8.572;2022-11-09T06:08:10;9.50;93.50
9542;DHT22;4809;48.224;8.572;2022-11-09T06:10:37;9.50;93.70
9542;DHT22;4809;48.224;8.572;2022-11-09T06:13:03;9.50;93.70
9542;DHT22;4809;48.224;8.572;2022-11-09T06:15:29;9.50;93.80
9542;DHT22;4809;48.224;8.572;2022-11-09T06:17:55;9.60;93.70
9542;DHT22;4809;48.224;8.572;2022-11-09T06:20:22;9.60;93.80
9542;DHT22;4809;48.224;8.572;2022-11-09T06:23:00;9.60;93.80
9542;DHT22;4809;48.224;8.572;2022-11-09T06:25:26;9.70;93.90
9542;DHT22;4809;48.224;8.572;2022-11-09T06:27:55;9.70;93.80
9542;DHT22;4809;48.224;8.572;2022-11-09T06:30:21;9.80;93.80
9542;DHT22;4809;48.224;8.572;2022-11-09T06:32:47;9.80;93.70
9542;DHT22;4809;48.224;8.572;2022-11-09T06:35:14;9.80;93.60
9542;DHT22;4809;48.224;8.572;2022-11-09T06:37:39;9.80;93.80
9542;DHT22;4809;48.224;8.572;2022-11-09T06:40:06;9.80;93.70
9542;DHT22;4809;48.224;8.572;2022-11-09T06:42:31;9.80;93.90
9542;DHT22;4809;48.224;8.572;2022-11-09T06:44:57;9.80;93.90
9542;DHT22;4809;48.224;8.572;2022-11-09T06:47:23;9.90;93.80
9542;DHT22;4809;48.224;8.572;2022-11-09T06:49:48;9.90;93.80
9542;DHT22;4809;48.224;8.572;2022-11-09T06:52:14;10.00;93.60
9542;DHT22;4809;48.224;8.572;2022-11-09T06:54:40;10.00;93.40
9542;DHT22;4809;48.224;8.572;2022-11-09T06:57:05;10.00;93.30
9542;DHT22;4809;48.224;8.572;2022-11-09T06:59:31;10.00;93.30
9542;DHT22;4809;48.224;8.572;2022-11-09T07:01:56;10.00;93.20
9542;DHT22;4809;48.224;8.572;2022-11-09T07:04:22;10.00;93.40
9542;DHT22;4809;48.224;8.572;2022-11-09T07:06:48;10.00;93.50
9542;DHT22;4809;48.224;8.572;2022-11-09T07:09:13;10.00;93.60
9542;DHT22;4809;48.224;8.572;2022-11-09T07:11:39;10.00;93.60
9542;DHT22;4809;48.224;8.572;2022-11-09T07:14:05;10.00;93.50
9542;DHT22;4809;48.224;8.572;2022-11-09T07:16:31;10.00;93.70
9542;DHT22;4809;48.224;8.572;2022-11-09T07:18:56;10.00;93.70
9542;DHT22;4809;48.224;8.572;2022-11-09T07:21:22;10.00;93.70
9542;DHT22;4809;48.224;8.572;2022-11-09T07:23:48;10.10;93.80
9542;DHT22;4809;48.224;8.572;2022-11-09T07:26:15;10.10;93.70
9542;DHT22;4809;48.224;8.572;2022-11-09T07:28:40;10.10;94.10
9542;DHT22;4809;48.224;8.572;2022-11-09T07:31:06;10.10;93.80
9542;DHT22;4809;48.224;8.572;2022-11-09T07:33:32;10.20;93.80
9542;DHT22;4809;48.224;8.572;2022-11-09T07:36:00;10.20;93.90
9542;DHT22;4809;48.224;8.572;2022-11-09T07:38:27;10.20;94.10
9542;DHT22;4809;48.224;8.572;2022-11-09T07:40:53;10.30;93.90
9542;DHT22;4809;48.224;8.572;2022-11-09T07:43:18;10.30;94.10
9542;DHT22;4809;48.224;8.572;2022-11-09T07:45:44;10.30;94.10
9542;DHT22;4809;48.224;8.572;2022-11-09T07:48:11;10.40;94.30
9542;DHT22;4809;48.224;8.572;2022-11-09T07:50:38;10.40;94.10
9542;DHT22;4809;48.224;8.572;2022-11-09T07:53:04;10.40;94.00
9542;DHT22;4809;48.224;8.572;2022-11-09T07:55:32;10.40;94.10
9542;DHT22;4809;48.224;8.572;2022-11-09T07:58:07;10.50;94.10
9542;DHT22;4809;48.224;8.572;2022-11-09T08:00:34;10.50;93.90
9542;DHT22;4809;48.224;8.572;2022-11-09T08:03:00;10.50;94.00
9542;DHT22;4809;48.224;8.572;2022-11-09T08:05:26;10.50;93.90
9542;DHT22;4809;48.224;8.572;2022-11-09T08:08:00;10.40;93.70
9542;DHT22;4809;48.224;8.572;2022-11-09T08:10:27;10.40;93.80
9542;DHT22;4809;48.224;8.572;2022-11-09T08:12:59;10.40;93.60
9542;DHT22;4809;48.224;8.572;2022-11-09T08:15:26;10.50;93.70
9542;DHT22;4809;48.224;8.572;2022-11-09T08:17:52;10.50;93.70
9542;DHT22;4809;48.224;8.572;2022-11-09T08:20:18;10.40;93.60
9542;DHT22;4809;48.224;8.572;2022-11-09T08:22:45;10.40;93.60
9542;DHT22;4809;48.224;8.572;2022-11-09T08:25:11;10.40;93.80
9542;DHT22;4809;48.224;8.572;2022-11-09T08:27:37;10.30;94.00
9542;DHT22;4809;48.224;8.572;2022-11-09T08:30:11;10.30;94.20
9542;DHT22;4809;48.224;8.572;2022-11-09T08:32:38;10.30;94.30
9542;DHT22;4809;48.224;8.572;2022-11-09T08:35:04;10.30;94.20
9542;DHT22;4809;48.224;8.572;2022-11-09T08:37:33;10.30;94.20
9542;DHT22;4809;48.224;8.572;2022-11-09T08:39:59;10.20;94.30
9542;DHT22;4809;48.224;8.572;2022-11-09T08:42:24;10.30;94.30
9542;DHT22;4809;48.224;8.572;2022-11-09T08:44:50;10.30;94.20
9542;DHT22;4809;48.224;8.572;2022-11-09T08:47:15;10.30;93.90
9542;DHT22;4809;48.224;8.572;2022-11-09T08:49:41;10.30;94.10
9542;DHT22;4809;48.224;8.572;2022-11-09T08:52:08;10.30;94.20
9542;DHT22;4809;48.224;8.572;2022-11-09T08:54:35;10.30;94.20
9542;DHT22;4809;48.224;8.572;2022-11-09T08:57:01;10.30;94.10
9542;DHT22;4809;48.224;8.572;2022-11-09T08:59:26;10.40;94.10
9542;DHT22;4809;48.224;8.572;2022-11-09T09:01:52;10.50;93.90
9542;DHT22;4809;48.224;8.572;2022-11-09T09:04:18;10.50;93.90
9542;DHT22;4809;48.224;8.572;2022-11-09T09:06:43;10.60;93.60
9542;DHT22;4809;48.224;8.572;2022-11-09T09:09:09;10.60;93.50
9542;DHT22;4809;48.224;8.572;2022-11-09T09:11:34;10.70;93.20
9542;DHT22;4809;48.224;8.572;2022-11-09T09:14:00;10.70;93.20
9542;DHT22;4809;48.224;8.572;2022-11-09T09:16:26;10.80;93.00
9542;DHT22;4809;48.224;8.572;2022-11-09T09:18:51;10.90;92.90
9542;DHT22;4809;48.224;8.572;2022-11-09T09:21:17;11.00;92.90
9542;DHT22;4809;48.224;8.572;2022-11-09T09:23:43;11.10;92.60
9542;DHT22;4809;48.224;8.572;2022-11-09T09:26:08;11.10;92.40
9542;DHT22;4809;48.224;8.572;2022-11-09T09:28:34;11.20;92.40
9542;DHT22;4809;48.224;8.572;2022-11-09T09:31:01;11.20;92.00
9542;DHT22;4809;48.224;8.572;2022-11-09T09:33:27;11.20;92.20
9542;DHT22;4809;48.224;8.572;2022-11-09T09:35:57;11.30;92.20
9542;DHT22;4809;48.224;8.572;2022-11-09T09:38:26;11.30;91.90
9542;DHT22;4809;48.224;8.572;2022-11-09T09:41:00;11.40;92.10
9542;DHT22;4809;48.224;8.572;2022-11-09T09:43:39;11.40;91.70
9542;DHT22;4809;48.224;8.572;2022-11-09T09:46:23;11.40;92.00
9542;DHT22;4809;48.224;8.572;2022-11-09T09:49:04;11.50;91.80
9542;DHT22;4809;48.224;8.572;2022-11-09T09:51:39;11.50;91.80
9542;DHT22;4809;48.224;8.572;2022-11-09T09:54:11;11.60;91.90
9542;DHT22;4809;48.224;8.572;2022-11-09T09:56:42;11.60;91.40
9542;DHT22;4809;48.224;8.572;2022-11-09T10:01:40;11.70;91.60
9542;DHT22;4809;48.224;8.572;2022-11-09T10:04:21;11.70;91.40
9542;DHT22;4809;48.224;8.572;2022-11-09T10:25:45;12.60;90.10
9542;DHT22;4809;48.224;8.572;2022-11-09T10:28:15;12.60;90.30
9542;DHT22;4809;48.224;8.572;2022-11-09T10:30:41;12.60;89.80
9542;DHT22;4809;48.224;8.572;2022-11-09T10:35:51;12.70;90.40
9542;DHT22;4809;48.224;8.572;2022-11-09T10:38:26;12.70;89.80
9542;DHT22;4809;48.224;8.572;2022-11-09T10:41:02;12.80;90.30
9542;DHT22;4809;48.224;8.572;2022-11-09T10:43:28;12.90;90.00
9542;DHT22;4809;48.224;8.572;2022-11-09T10:46:02;12.90;89.70
9542;DHT22;4809;48.224;8.572;2022-11-09T10:48:35;13.00;89.30
9542;DHT22;4809;48.224;8.572;2022-11-09T10:51:02;13.00;89.50
9542;DHT22;4809;48.224;8.572;2022-11-09T10:53:30;13.00;89.40
9542;DHT22;4809;48.224;8.572;2022-11-09T10:56:14;12.90;89.40
9542;DHT22;4809;48.224;8.572;2022-11-09T10:58:50;12.80;90.10
9542;DHT22;4809;48.224;8.572;2022-11-09T11:01:22;12.90;90.10
9542;DHT22;4809;48.224;8.572;2022-11-09T11:03:50;12.90;90.00
9542;DHT22;4809;48.224;8.572;2022-11-09T11:11:25;12.90;89.70
9542;DHT22;4809;48.224;8.572;2022-11-09T11:16:38;12.90;90.00
9542;DHT22;4809;48.224;8.572;2022-11-09T11:19:04;13.00;90.00
9542;DHT22;4809;48.224;8.572;2022-11-09T11:21:30;13.00;89.60
9542;DHT22;4809;48.224;8.572;2022-11-09T11:27:00;13.10;89.80
9542;DHT22;4809;48.224;8.572;2022-11-09T11:29:36;13.20;89.70
9542;DHT22;4809;48.224;8.572;2022-11-09T11:32:06;13.20;89.80
9542;DHT22;4809;48.224;8.572;2022-11-09T11:34:34;13.20;89.80
9542;DHT22;4809;48.224;8.572;2022-11-09T11:37:58;13.20;89.40
9542;DHT22;4809;48.224;8.572;2022-11-09T11:40:37;13.10;89.60
9542;DHT22;4809;48.224;8.572;2022-11-09T11:43:21;13.10;90.10
9542;DHT22;4809;48.224;8.572;2022-11-09T11:49:04;13.00;90.00
9542;DHT22;4809;48.224;8.572;2022-11-09T11:51:54;13.00;90.00
9542;DHT22;4809;48.224;8.572;2022-11-09T11:54:39;12.90;90.00
9542;DHT22;4809;48.224;8.572;2022-11-09T12:08:18;13.00;90.00
9542;DHT22;4809;48.224;8.572;2022-11-09T12:10:58;13.10;90.00
9542;DHT22;4809;48.224;8.572;2022-11-09T12:16:14;13.20;88.80
9542;DHT22;4809;48.224;8.572;2022-11-09T12:19:00;13.20;88.70
9542;DHT22;4809;48.224;8.572;2022-11-09T12:24:28;13.30;88.70
9542;DHT22;4809;48.224;8.572;2022-11-09T12:27:17;13.30;89.30
9542;DHT22;4809;48.224;8.572;2022-11-09T12:32:48;13.30;88.90
9542;DHT22;4809;48.224;8.572;2022-11-09T12:40:25;13.40;89.20
9542;DHT22;4809;48.224;8.572;2022-11-09T12:45:29;13.30;89.00
9542;DHT22;4809;48.224;8.572;2022-11-09T12:48:15;13.30;89.80
9542;DHT22;4809;48.224;8.572;2022-11-09T12:50:44;13.20;89.90
9542;DHT22;4809;48.224;8.572;2022-11-09T12:53:10;13.10;89.40
9542;DHT22;4809;48.224;8.572;2022-11-09T12:55:44;13.00;89.90
9542;DHT22;4809;48.224;8.572;2022-11-09T12:58:26;13.00;90.00
9542;DHT22;4809;48.224;8.572;2022-11-09T13:00:57;13.00;90.20
9542;DHT22;4809;48.224;8.572;2022-11-09T13:03:29;13.00;90.20
9542;DHT22;4809;48.224;8.572;2022-11-09T13:08:34;13.00;89.80
9542;DHT22;4809;48.224;8.572;2022-11-09T13:16:47;13.00;90.30
9542;DHT22;4809;48.224;8.572;2022-11-09T13:24:59;12.90;90.60
9542;DHT22;4809;48.224;8.572;2022-11-09T13:27:43;12.80;90.70
9542;DHT22;4809;48.224;8.572;2022-11-09T13:38:38;12.70;91.20
9542;DHT22;4809;48.224;8.572;2022-11-09T13:44:21;12.60;91.30
9542;DHT22;4809;48.224;8.572;2022-11-09T13:46:48;12.60;91.50
9542;DHT22;4809;48.224;8.572;2022-11-09T13:49:38;12.60;91.60
9542;DHT22;4809;48.224;8.572;2022-11-09T13:55:38;12.60;92.00
9542;DHT22;4809;48.224;8.572;2022-11-09T13:58:12;12.50;92.00
9542;DHT22;4809;48.224;8.572;2022-11-09T14:00:45;12.50;92.10
9542;DHT22;4809;48.224;8.572;2022-11-09T14:03:21;12.60;92.20
9542;DHT22;4809;48.224;8.572;2022-11-09T14:05:56;12.50;92.20
9542;DHT22;4809;48.224;8.572;2022-11-09T14:08:33;12.50;92.20
9542;DHT22;4809;48.224;8.572;2022-11-09T14:11:24;12.50;92.40
9542;DHT22;4809;48.224;8.572;2022-11-09T14:16:57;12.50;92.50
9542;DHT22;4809;48.224;8.572;2022-11-09T14:22:21;12.50;92.70
9542;DHT22;4809;48.224;8.572;2022-11-09T14:24:47;12.50;92.80
9542;DHT22;4809;48.224;8.572;2022-11-09T14:27:20;12.40;92.80
9542;DHT22;4809;48.224;8.572;2022-11-09T14:32:27;12.40;92.90
9542;DHT22;4809;48.224;8.572;2022-11-09T14:35:29;12.40;93.40
9542;DHT22;4809;48.224;8.572;2022-11-09T14:37:59;12.40;92.90
9542;DHT22;4809;48.224;8.572;2022-11-09T14:40:30;12.40;93.00
9542;DHT22;4809;48.224;8.572;2022-11-09T14:42:59;12.40;93.00
9542;DHT22;4809;48.224;8.572;2022-11-09T14:45:26;12.40;92.40
9542;DHT22;4809;48.224;8.572;2022-11-09T14:47:56;12.30;92.60
9542;DHT22;4809;48.224;8.572;2022-11-09T14:50:29;12.20;92.80
9542;DHT22;4809;48.224;8.572;2022-11-09T14:52:56;12.20;93.10
9542;DHT22;4809;48.224;8.572;2022-11-09T14:55:24;12.20;93.00
9542;DHT22;4809;48.224;8.572;2022-11-09T14:57:52;12.10;92.80
9542;DHT22;4809;48.224;8.572;2022-11-09T15:00:24;12.00;92.90
9542;DHT22;4809;48.224;8.572;2022-11-09T15:02:50;12.00;93.10
9542;DHT22;4809;48.224;8.572;2022-11-09T15:05:39;12.00;93.20
9542;DHT22;4809;48.224;8.572;2022-11-09T15:08:18;11.90;93.30
9542;DHT22;4809;48.224;8.572;2022-11-09T15:10:49;11.80;93.60
9542;DHT22;4809;48.224;8.572;2022-11-09T15:13:15;11.80;93.80
9542;DHT22;4809;48.224;8.572;2022-11-09T15:15:49;11.70;93.90
9542;DHT22;4809;48.224;8.572;2022-11-09T15:18:23;11.60;93.80
9542;DHT22;4809;48.224;8.572;2022-11-09T15:21:12;11.60;93.90
9542;DHT22;4809;48.224;8.572;2022-11-09T15:23:41;11.60;93.90
9542;DHT22;4809;48.224;8.572;2022-11-09T15:26:38;11.50;94.00
9542;DHT22;4809;48.224;8.572;2022-11-09T15:32:12;11.50;94.20
9542;DHT22;4809;48.224;8.572;2022-11-09T15:34:50;11.50;94.40
9542;DHT22;4809;48.224;8.572;2022-11-09T15:37:29;11.40;94.60
9542;DHT22;4809;48.224;8.572;2022-11-09T15:39:56;11.40;94.60
9542;DHT22;4809;48.224;8.572;2022-11-09T15:42:23;11.40;94.60
9542;DHT22;4809;48.224;8.572;2022-11-09T15:44:54;11.40;94.50
9542;DHT22;4809;48.224;8.572;2022-11-09T15:47:35;11.30;94.60
9542;DHT22;4809;48.224;8.572;2022-11-09T15:50:05;11.30;94.50
9542;DHT22;4809;48.224;8.572;2022-11-09T15:52:31;11.30;94.40
9542;DHT22;4809;48.224;8.572;2022-11-09T15:54:57;11.20;94.50
9542;DHT22;4809;48.224;8.572;2022-11-09T15:57:22;11.20;94.50
9542;DHT22;4809;48.224;8.572;2022-11-09T15:59:49;11.20;94.50
9542;DHT22;4809;48.224;8.572;2022-11-09T16:02:16;11.20;94.40
9542;DHT22;4809;48.224;8.572;2022-11-09T16:04:43;11.10;94.50
9542;DHT22;4809;48.224;8.572;2022-11-09T16:07:12;11.10;94.50
9542;DHT22;4809;48.224;8.572;2022-11-09T16:09:39;11.10;94.50
9542;DHT22;4809;48.224;8.572;2022-11-09T16:12:05;11.00;94.50
9542;DHT22;4809;48.224;8.572;2022-11-09T16:14:32;10.90;94.60
9542;DHT22;4809;48.224;8.572;2022-11-09T16:16:57;11.00;94.60
9542;DHT22;4809;48.224;8.572;2022-11-09T16:19:23;10.90;94.60
9542;DHT22;4809;48.224;8.572;2022-11-09T16:21:51;10.90;94.70
9542;DHT22;4809;48.224;8.572;2022-11-09T16:24:17;10.90;94.60
9542;DHT22;4809;48.224;8.572;2022-11-09T16:26:42;10.90;94.80
9542;DHT22;4809;48.224;8.572;2022-11-09T16:29:10;10.80;94.90
9542;DHT22;4809;48.224;8.572;2022-11-09T16:31:35;10.90;94.90
9542;DHT22;4809;48.224;8.572;2022-11-09T16:34:01;10.90;95.10
9542;DHT22;4809;48.224;8.572;2022-11-09T16:36:27;11.00;95.20
9542;DHT22;4809;48.224;8.572;2022-11-09T16:38:53;11.00;95.20
9542;DHT22;4809;48.224;8.572;2022-11-09T16:41:21;11.10;95.30
9542;DHT22;4809;48.224;8.572;2022-11-09T16:43:50;11.10;95.10
9542;DHT22;4809;48.224;8.572;2022-11-09T16:46:25;11.10;95.20
9542;DHT22;4809;48.224;8.572;2022-11-09T16:48:52;11.00;95.10
9542;DHT22;4809;48.224;8.572;2022-11-09T16:51:18;11.00;95.10
9542;DHT22;4809;48.224;8.572;2022-11-09T16:53:44;10.90;95.10
9542;DHT22;4809;48.224;8.572;2022-11-09T16:56:09;11.00;94.90
9542;DHT22;4809;48.224;8.572;2022-11-09T16:58:35;11.00;94.90
9542;DHT22;4809;48.224;8.572;2022-11-09T17:01:01;10.90;94.80
9542;DHT22;4809;48.224;8.572;2022-11-09T17:03:27;10.90;94.50
9542;DHT22;4809;48.224;8.572;2022-11-09T17:05:52;10.90;93.80
9542;DHT22;4809;48.224;8.572;2022-11-09T17:08:23;10.90;93.50
9542;DHT22;4809;48.224;8.572;2022-11-09T17:10:48;10.90;93.60
9542;DHT22;4809;48.224;8.572;2022-11-09T17:13:14;10.80;93.70
9542;DHT22;4809;48.224;8.572;2022-11-09T17:15:45;10.80;93.80
9542;DHT22;4809;48.224;8.572;2022-11-09T17:18:12;10.70;94.00
9542;DHT22;4809;48.224;8.572;2022-11-09T17:20:48;10.70;94.30
9542;DHT22;4809;48.224;8.572;2022-11-09T17:23:16;10.70;94.40
9542;DHT22;4809;48.224;8.572;2022-11-09T17:26:02;10.70;94.50
9542;DHT22;4809;48.224;8.572;2022-11-09T17:28:29;10.70;94.60
9542;DHT22;4809;48.224;8.572;2022-11-09T17:30:55;10.70;94.50
9542;DHT22;4809;48.224;8.572;2022-11-09T17:33:21;10.70;94.60
9542;DHT22;4809;48.224;8.572;2022-11-09T17:35:47;10.70;95.00
9542;DHT22;4809;48.224;8.572;2022-11-09T17:38:21;10.60;94.60
9542;DHT22;4809;48.224;8.572;2022-11-09T17:40:47;10.60;94.70
9542;DHT22;4809;48.224;8.572;2022-11-09T17:43:13;10.60;94.70
9542;DHT22;4809;48.224;8.572;2022-11-09T17:45:38;10.50;94.70
9542;DHT22;4809;48.224;8.572;2022-11-09T17:48:04;10.60;94.50
9542;DHT22;4809;48.224;8.572;2022-11-09T17:50:30;10.50;94.40
9542;DHT22;4809;48.224;8.572;2022-11-09T17:52:56;10.50;94.30
9542;DHT22;4809;48.224;8.572;2022-11-09T17:55:22;10.50;94.20
9542;DHT22;4809;48.224;8.572;2022-11-09T17:57:47;10.50;93.80
9542;DHT22;4809;48.224;8.572;2022-11-09T18:00:13;10.60;93.70
9542;DHT22;4809;48.224;8.572;2022-11-09T18:02:39;10.60;93.70
9542;DHT22;4809;48.224;8.572;2022-11-09T18:05:05;10.50;93.70
9542;DHT22;4809;48.224;8.572;2022-11-09T18:07:31;10.50;93.80
9542;DHT22;4809;48.224;8.572;2022-11-09T18:09:57;10.50;93.60